Time;durP1;ratioP1;P1;durP2;ratioP2;P2;SDS_P1;SDS_P2;PMS_P1;PMS_P2;Temp;Humidity;BMP_temperature;BMP_pressure;BME280_temperature;BME280_humidity;BME280_pressure;Samples;Min_cycle;Max_cycle;Signal;HPM_P1;HPM_P2
2022/06/26 00:00:19;;;;;;;;;2.50;2.50;;;;;17.17;52.79;100867.63;5022767;28;45339;-59
2022/06/26 00:02:46;;;;;;;;;2.00;2.00;;;;;17.16;52.95;100868.53;5022209;28;45508;-59
2022/06/26 00:05:11;;;;;;;;;5.00;3.00;;;;;17.15;52.93;100874.78;5022401;28;46228;-59
2022/06/26 00:07:36;;;;;;;;;3.50;3.50;;;;;17.13;52.75;100878.41;5022664;28;45174;-59
2022/06/26 00:10:02;;;;;;;;;2.00;1.50;;;;;17.11;52.91;100878.50;5022780;28;45283;-59
2022/06/26 00:12:28;;;;;;;;;4.00;2.00;;;;;17.10;53.00;100875.91;5017864;28;45356;-59
2022/06/26 00:14:53;;;;;;;;;2.25;2.25;;;;;17.08;52.80;100878.63;5022336;28;45298;-59
2022/06/26 00:17:19;;;;;;;;;3.00;1.75;;;;;17.06;53.20;100877.81;5022379;28;45228;-59
2022/06/26 00:19:44;;;;;;;;;2.00;2.00;;;;;17.05;53.20;100874.28;5022532;28;45471;-59
2022/06/26 00:22:09;;;;;;;;;2.00;2.00;;;;;17.04;52.99;100882.31;5037746;28;45605;-59
2022/06/26 00:24:37;;;;;;;;;1.00;1.00;;;;;17.03;53.22;100872.59;5022150;28;46226;-59
2022/06/26 00:27:03;;;;;;;;;1.00;1.00;;;;;17.03;53.14;100873.47;5022272;28;45358;-59
2022/06/26 00:29:33;;;;;;;;;3.00;3.00;;;;;17.03;53.27;100865.53;5022374;28;45273;-59
2022/06/26 00:31:59;;;;;;;;;2.75;2.00;;;;;16.99;52.83;100857.72;5021809;28;45470;-59
2022/06/26 00:34:24;;;;;;;;;2.00;2.00;;;;;16.97;53.21;100856.94;5021947;28;45290;-59
2022/06/26 00:36:50;;;;;;;;;4.75;2.00;;;;;16.96;53.48;100849.91;5022049;28;45194;-59
2022/06/26 00:39:15;;;;;;;;;1.00;1.00;;;;;16.95;53.04;100858.78;5022028;28;45284;-59
2022/06/26 00:41:40;;;;;;;;;2.00;1.50;;;;;16.92;53.11;100850.91;5022074;28;45229;-59
2022/06/26 00:44:18;;;;;;;;;2.50;1.50;;;;;16.92;53.13;100864.19;5022107;28;45808;-59
2022/06/26 00:46:44;;;;;;;;;2.00;1.50;;;;;16.89;53.18;100862.50;5021633;28;45303;-59
2022/06/26 00:49:10;;;;;;;;;2.50;2.00;;;;;16.88;53.30;100861.63;5021849;28;45347;-59
2022/06/26 00:51:40;;;;;;;;;2.00;2.00;;;;;16.86;53.27;100867.94;5020534;28;45330;-59
2022/06/26 00:54:07;;;;;;;;;5.00;3.00;;;;;16.87;53.06;100867.00;5021337;28;45402;-59
2022/06/26 00:56:34;;;;;;;;;2.75;2.75;;;;;16.84;53.41;100875.97;5021672;28;45272;-59
2022/06/26 00:59:00;;;;;;;;;2.00;2.00;;;;;16.84;53.26;100878.63;5021872;28;45333;-59
2022/06/26 01:01:25;;;;;;;;;2.00;2.00;;;;;16.79;53.31;100882.34;5036794;28;45368;-59
2022/06/26 01:03:50;;;;;;;;;3.00;2.00;;;;;16.81;53.50;100883.16;5036449;28;45974;-59
2022/06/26 01:06:17;;;;;;;;;2.50;2.00;;;;;16.76;53.48;100878.03;5021903;28;45330;-59
2022/06/26 01:08:43;;;;;;;;;4.25;2.25;;;;;16.76;53.22;100872.72;5021731;28;45438;-59
2022/06/26 01:11:20;;;;;;;;;4.50;2.00;;;;;16.76;53.46;100872.72;5019105;28;45236;-58
2022/06/26 01:13:47;;;;;;;;;2.00;2.00;;;;;16.75;53.23;100870.97;5020655;28;47044;-59
2022/06/26 01:16:14;;;;;;;;;2.00;2.00;;;;;16.71;53.14;100872.88;5021416;28;45327;-59
2022/06/26 01:18:40;;;;;;;;;3.25;2.00;;;;;16.69;53.69;100887.13;5021277;28;45277;-59
2022/06/26 01:21:06;;;;;;;;;1.00;1.00;;;;;16.68;53.51;100894.25;5036600;28;45443;-59
2022/06/26 01:23:31;;;;;;;;;1.00;1.00;;;;;16.68;53.42;100896.03;5021388;28;45171;-59
2022/06/26 01:25:57;;;;;;;;;3.00;3.00;;;;;16.68;53.47;100885.44;5021415;28;45392;-59
2022/06/26 01:28:22;;;;;;;;;3.00;2.00;;;;;16.66;53.53;100876.66;5021494;28;45344;-59
2022/06/26 01:30:48;;;;;;;;;2.25;2.25;;;;;16.62;53.39;100883.84;5021109;28;45225;-59
2022/06/26 01:33:13;;;;;;;;;2.75;2.75;;;;;16.62;53.48;100886.50;5020950;28;45254;-59
2022/06/26 01:35:39;;;;;;;;;2.00;2.00;;;;;16.58;53.78;100895.50;5021241;28;45172;-59
2022/06/26 01:38:33;;;;;;;;;3.50;1.00;;;;;16.60;53.65;100890.13;5021345;28;45167;-59
2022/06/26 01:40:59;;;;;;;;;2.00;2.00;;;;;16.55;54.03;100898.25;4999426;28;45255;-59
2022/06/26 01:43:29;;;;;;;;;4.00;2.25;;;;;16.54;53.34;100896.53;5021025;28;46259;-60
2022/06/26 01:45:56;;;;;;;;;2.00;2.00;;;;;16.55;53.70;100898.25;5020987;28;45265;-59
2022/06/26 01:48:24;;;;;;;;;3.50;2.50;;;;;16.53;53.59;100900.97;5021020;28;45242;-59
2022/06/26 01:50:50;;;;;;;;;2.50;2.00;;;;;16.52;53.89;100901.03;5019616;28;45516;-59
2022/06/26 01:53:16;;;;;;;;;3.00;2.00;;;;;16.54;53.52;100899.16;5020893;28;46404;-59
2022/06/26 01:55:42;;;;;;;;;2.00;2.00;;;;;16.48;53.66;100894.97;5020745;28;45385;-59
2022/06/26 01:58:08;;;;;;;;;2.25;1.00;;;;;16.48;53.69;100894.97;5021112;28;45371;-59
2022/06/26 02:00:38;;;;;;;;;2.75;2.75;;;;;16.46;53.35;100888.84;5020809;28;45314;-59
2022/06/26 02:03:05;;;;;;;;;2.75;2.75;;;;;16.46;53.93;100902.09;5019100;28;46859;-60
2022/06/26 02:05:31;;;;;;;;;4.00;3.00;;;;;16.44;53.97;100903.97;5019687;28;45271;-59
2022/06/26 02:07:56;;;;;;;;;3.50;3.25;;;;;16.42;53.81;100884.59;5020937;28;45375;-59
2022/06/26 02:15:53;;;;;;;;;1.25;1.25;;;;;16.40;53.72;100884.66;5020489;28;45305;-59
2022/06/26 02:18:19;;;;;;;;;3.00;1.00;;;;;16.40;53.54;100887.31;5020396;28;45339;-59
2022/06/26 02:20:45;;;;;;;;;4.50;3.00;;;;;16.39;53.86;100893.50;5020627;28;45452;-59
2022/06/26 02:23:11;;;;;;;;;6.00;3.00;;;;;16.37;53.59;100903.31;5020474;28;46206;-59
2022/06/26 02:25:37;;;;;;;;;3.00;2.75;;;;;16.36;53.62;100911.31;5020461;28;45440;-59
2022/06/26 02:28:03;;;;;;;;;3.00;2.50;;;;;16.34;53.60;100908.72;5020464;28;45284;-59
2022/06/26 02:30:28;;;;;;;;;4.75;2.00;;;;;16.30;54.13;100909.78;5020373;28;45231;-59
2022/06/26 02:32:56;;;;;;;;;4.00;2.50;;;;;16.29;53.95;100899.19;5019735;28;45215;-58
2022/06/26 02:35:21;;;;;;;;;4.50;3.50;;;;;16.29;53.76;100886.81;5020335;28;45347;-59
2022/06/26 02:37:47;;;;;;;;;2.00;2.00;;;;;16.29;53.67;100877.97;5018998;28;45373;-59
2022/06/26 02:40:12;;;;;;;;;4.25;4.25;;;;;16.28;53.93;100882.44;5020194;28;45582;-59
2022/06/26 02:42:37;;;;;;;;;2.75;2.75;;;;;16.27;53.84;100882.50;5019989;28;45375;-59
2022/06/26 02:45:05;;;;;;;;;3.00;3.00;;;;;16.27;53.74;100885.16;5020317;28;45253;-58
2022/06/26 02:47:30;;;;;;;;;5.25;3.75;;;;;16.26;54.07;100884.25;5019997;28;45448;-59
2022/06/26 02:49:55;;;;;;;;;3.00;3.00;;;;;16.25;54.24;100886.06;5019962;28;47491;-59
2022/06/26 02:52:21;;;;;;;;;4.75;4.75;;;;;16.27;54.30;100885.16;5019944;28;45325;-59
2022/06/26 02:54:46;;;;;;;;;2.75;2.75;;;;;16.24;54.14;100886.97;5020167;28;45256;-58
2022/06/26 02:57:11;;;;;;;;;5.50;4.25;;;;;16.23;53.85;100895.84;5020126;28;45270;-59
2022/06/26 02:59:37;;;;;;;;;5.75;4.00;;;;;16.23;54.22;100889.69;5020015;28;45380;-59
2022/06/26 03:02:02;;;;;;;;;2.50;2.50;;;;;16.23;53.99;100895.84;5019101;28;46017;-59
2022/06/26 03:04:27;;;;;;;;;3.00;2.25;;;;;16.23;54.23;100890.53;5019833;28;45228;-59
2022/06/26 03:06:53;;;;;;;;;4.75;2.75;;;;;16.23;53.86;100895.84;5018477;28;45465;-59
2022/06/26 03:09:18;;;;;;;;;4.25;2.75;;;;;16.24;54.13;100894.06;5020099;28;45252;-59
2022/06/26 03:11:43;;;;;;;;;5.25;4.00;;;;;16.22;54.17;100896.75;5030440;28;47968;-59
2022/06/26 03:14:09;;;;;;;;;2.75;2.50;;;;;16.22;54.02;100894.09;5019831;28;45210;-59
2022/06/26 03:16:34;;;;;;;;;2.25;2.25;;;;;16.26;53.87;100894.88;5021062;28;45256;-59
2022/06/26 03:19:00;;;;;;;;;3.00;2.75;;;;;16.28;53.95;100892.19;5023645;28;45354;-59
2022/06/26 03:21:26;;;;;;;;;4.25;3.50;;;;;16.28;53.95;100903.66;5023217;28;45335;-59
2022/06/26 03:24:03;;;;;;;;;3.75;2.25;;;;;16.31;54.13;100905.31;5023437;28;45410;-59
2022/06/26 03:26:30;;;;;;;;;2.00;2.00;;;;;16.32;54.14;100909.72;5023368;28;45299;-58
2022/06/26 03:28:56;;;;;;;;;2.25;2.25;;;;;16.33;54.38;100917.59;5023140;28;45313;-58
2022/06/26 03:31:21;;;;;;;;;2.00;2.00;;;;;16.35;54.01;100920.19;5022884;28;45995;-59
2022/06/26 03:33:47;;;;;;;;;5.25;3.50;;;;;16.38;53.96;100920.09;5022924;28;45307;-59
2022/06/26 03:36:12;;;;;;;;;2.75;2.75;;;;;16.41;54.06;100906.72;5023264;28;45260;-59
2022/06/26 03:38:38;;;;;;;;;3.75;3.75;;;;;16.41;54.20;100920.88;5023259;28;45279;-59
2022/06/26 03:41:03;;;;;;;;;3.25;3.00;;;;;16.40;53.90;100924.44;5022737;28;46034;-59
2022/06/26 03:43:29;;;;;;;;;4.50;3.50;;;;;16.41;54.29;100919.97;5023323;28;45324;-59
2022/06/26 03:45:55;;;;;;;;;3.00;3.00;;;;;16.40;53.94;100919.13;5022927;28;45225;-59
2022/06/26 03:48:20;;;;;;;;;4.00;4.00;;;;;16.38;53.79;100923.59;5022762;28;45243;-59
2022/06/26 03:50:46;;;;;;;;;4.25;3.00;;;;;16.41;54.09;100925.28;5022616;28;46376;-59
2022/06/26 03:53:11;;;;;;;;;5.00;3.00;;;;;16.42;54.16;100924.38;5037591;28;45255;-59
2022/06/26 03:55:37;;;;;;;;;3.50;3.25;;;;;16.42;54.04;100929.66;5022939;28;45369;-59
2022/06/26 03:58:03;;;;;;;;;4.50;3.75;;;;;16.43;54.11;100934.06;5022895;28;45588;-59
2022/06/26 04:00:29;;;;;;;;;6.75;5.00;;;;;16.42;53.81;100945.59;5022577;28;46331;-59
2022/06/26 04:02:55;;;;;;;;;4.00;4.00;;;;;16.43;53.99;100939.38;5020958;28;45441;-60
2022/06/26 04:05:21;;;;;;;;;3.00;2.50;;;;;16.42;53.98;100937.63;5022728;28;45250;-59
2022/06/26 04:07:46;;;;;;;;;2.50;2.50;;;;;16.43;53.65;100934.06;5022710;28;45229;-59
2022/06/26 04:10:12;;;;;;;;;5.75;4.25;;;;;16.45;53.96;100950.75;5022284;28;46205;-59
2022/06/26 04:12:37;;;;;;;;;3.00;3.00;;;;;16.45;53.74;100966.69;5017699;28;45233;-59
2022/06/26 04:15:03;;;;;;;;;3.00;3.00;;;;;16.48;53.77;100969.25;5022646;28;45836;-59
2022/06/26 04:17:28;;;;;;;;;3.50;3.00;;;;;16.52;53.58;100962.03;5022361;28;45431;-59
2022/06/26 04:19:54;;;;;;;;;3.50;3.25;;;;;16.56;53.51;100966.31;5022282;28;46410;-59
2022/06/26 04:22:19;;;;;;;;;4.75;4.75;;;;;16.60;53.42;100961.75;5022497;28;45238;-59
2022/06/26 04:24:44;;;;;;;;;3.75;3.00;;;;;16.60;53.79;100961.75;5021218;28;45287;-59
2022/06/26 04:27:10;;;;;;;;;4.25;3.00;;;;;16.61;53.83;100953.75;5037590;28;45704;-59
2022/06/26 04:29:35;;;;;;;;;3.25;2.50;;;;;16.60;53.81;100953.81;5021724;28;46274;-59
2022/06/26 04:32:01;;;;;;;;;6.00;3.00;;;;;16.58;53.84;100959.19;5021784;28;45326;-59
2022/06/26 04:34:26;;;;;;;;;7.50;6.00;;;;;16.57;53.98;100968.91;5022455;28;45324;-59
2022/06/26 04:36:51;;;;;;;;;4.00;3.50;;;;;16.56;53.76;100982.22;5022331;28;45544;-59
2022/06/26 04:39:17;;;;;;;;;6.00;4.00;;;;;16.54;53.83;100979.63;5022115;28;45403;-59
2022/06/26 04:41:43;;;;;;;;;4.00;2.75;;;;;16.56;53.95;100987.53;5022116;28;45335;-59
2022/06/26 04:44:12;;;;;;;;;5.50;5.50;;;;;16.55;53.87;100973.41;5022137;28;45296;-59
2022/06/26 04:46:42;;;;;;;;;3.00;2.00;;;;;16.58;54.09;100986.56;5021787;28;45217;-59
2022/06/26 04:49:07;;;;;;;;;3.00;3.00;;;;;16.61;53.98;100980.28;5021872;28;45327;-59
2022/06/26 04:51:36;;;;;;;;;3.25;3.00;;;;;16.64;53.99;100982.84;5021709;28;45344;-59
2022/06/26 04:54:03;;;;;;;;;5.25;5.25;;;;;16.65;54.07;100981.03;5037017;28;45179;-59
2022/06/26 04:56:28;;;;;;;;;3.50;3.00;;;;;16.63;54.01;100981.09;5020212;28;45328;-59
2022/06/26 04:58:54;;;;;;;;;6.75;5.00;;;;;16.65;53.86;100979.22;5021611;28;45315;-59
2022/06/26 05:01:20;;;;;;;;;3.50;3.50;;;;;16.71;53.88;100994.09;5020998;28;45423;-59
2022/06/26 05:03:45;;;;;;;;;9.25;8.75;;;;;16.73;53.72;100994.91;5021854;28;45411;-59
2022/06/26 05:06:11;;;;;;;;;3.50;3.00;;;;;16.77;53.69;100990.38;5021808;28;45534;-59
2022/06/26 05:08:37;;;;;;;;;4.25;4.25;;;;;16.80;53.46;100996.41;5021658;28;46165;-59
2022/06/26 05:11:02;;;;;;;;;3.00;1.00;;;;;16.82;53.60;100994.56;5035649;28;45478;-59
2022/06/26 05:13:28;;;;;;;;;7.50;5.75;;;;;16.87;53.93;101003.22;5018246;28;45256;-59
2022/06/26 05:15:53;;;;;;;;;5.25;5.25;;;;;16.89;54.02;100992.53;5036864;28;45538;-59
2022/06/26 05:18:18;;;;;;;;;4.50;4.50;;;;;16.95;53.81;101005.63;5021274;28;46084;-59
2022/06/26 05:20:44;;;;;;;;;2.75;2.75;;;;;16.98;53.86;101012.59;5019828;28;45291;-59
2022/06/26 05:23:11;;;;;;;;;5.50;5.00;;;;;17.00;53.77;101002.81;5021573;28;45311;-59
2022/06/26 05:25:37;;;;;;;;;3.75;2.75;;;;;17.06;53.49;101010.53;5021474;28;45436;-59
2022/06/26 05:28:02;;;;;;;;;5.75;3.50;;;;;17.10;53.62;101000.69;5021140;28;46113;-59
2022/06/26 05:30:28;;;;;;;;;3.00;3.00;;;;;17.14;53.55;101007.59;5021420;28;45212;-59
2022/06/26 05:32:53;;;;;;;;;4.25;3.25;;;;;17.17;53.65;101011.00;5036322;28;45786;-59
2022/06/26 05:35:18;;;;;;;;;6.00;4.75;;;;;17.18;53.40;101006.56;5021349;28;45169;-59
2022/06/26 05:37:44;;;;;;;;;4.00;4.00;;;;;17.23;53.58;101007.25;5021099;28;46105;-59
2022/06/26 05:40:09;;;;;;;;;5.25;3.00;;;;;17.25;53.54;101013.38;5019954;28;45227;-59
2022/06/26 05:42:35;;;;;;;;;4.00;3.25;;;;;17.27;53.46;101022.16;5021179;28;45305;-59
2022/06/26 05:45:00;;;;;;;;;4.25;3.75;;;;;17.29;53.35;101006.16;5021304;28;45232;-59
2022/06/26 05:47:25;;;;;;;;;6.00;6.00;;;;;17.32;53.07;101004.25;5035960;28;48400;-59
2022/06/26 05:49:51;;;;;;;;;7.50;4.00;;;;;17.30;53.12;101011.41;5021203;28;45165;-59
2022/06/26 05:52:16;;;;;;;;;4.75;4.50;;;;;17.35;53.36;101024.53;5019592;28;45282;-59
2022/06/26 05:54:41;;;;;;;;;4.00;4.00;;;;;17.36;53.37;101011.19;5021341;28;45335;-58
2022/06/26 05:57:07;;;;;;;;;4.00;4.00;;;;;17.39;53.26;101010.19;5036093;28;47127;-58
2022/06/26 05:59:32;;;;;;;;;3.00;3.00;;;;;17.42;53.38;101015.41;5020944;28;45321;-58
2022/06/26 06:01:58;;;;;;;;;6.00;3.75;;;;;17.45;53.35;101017.06;5020288;28;45358;-60
2022/06/26 06:04:23;;;;;;;;;4.50;4.50;;;;;17.46;53.23;101019.66;5020934;28;45275;-59
2022/06/26 06:06:48;;;;;;;;;6.00;4.00;;;;;17.50;53.12;101025.72;5020836;28;46134;-59
2022/06/26 06:09:14;;;;;;;;;5.75;4.00;;;;;17.51;53.25;101017.69;5020830;28;45339;-60
2022/06/26 06:11:39;;;;;;;;;3.75;3.00;;;;;17.55;53.09;101016.63;5015885;28;45676;-60
2022/06/26 06:14:05;;;;;;;;;4.00;3.00;;;;;17.57;52.80;101015.72;5020772;28;45304;-60
2022/06/26 06:16:30;;;;;;;;;3.25;3.00;;;;;17.61;53.13;101022.63;5035599;28;48033;-59
2022/06/26 06:18:55;;;;;;;;;6.00;5.00;;;;;17.66;52.70;101023.31;5020675;28;45228;-59
2022/06/26 06:21:21;;;;;;;;;6.75;5.00;;;;;17.68;52.76;101018.81;5020673;28;45564;-60
2022/06/26 06:23:46;;;;;;;;;3.25;2.50;;;;;17.70;53.21;101024.94;5020581;28;45269;-60
2022/06/26 06:26:11;;;;;;;;;6.00;3.00;;;;;17.73;52.67;101026.63;5020583;28;45383;-59
2022/06/26 06:28:37;;;;;;;;;3.00;3.00;;;;;17.76;52.80;101021.16;5020550;28;45205;-60
2022/06/26 06:31:02;;;;;;;;;3.00;3.00;;;;;17.76;52.75;101024.72;5020549;28;45209;-59
2022/06/26 06:33:28;;;;;;;;;4.00;3.00;;;;;17.83;52.86;101036.81;5020183;28;45509;-59
2022/06/26 06:35:55;;;;;;;;;5.25;3.50;;;;;17.86;52.70;101042.03;5020182;28;46346;-60
2022/06/26 06:38:21;;;;;;;;;4.00;4.00;;;;;17.89;52.74;101046.34;5035066;28;45469;-60
2022/06/26 06:40:47;;;;;;;;;5.00;4.00;;;;;17.93;52.82;101052.41;5020012;28;45382;-60
2022/06/26 06:43:13;;;;;;;;;3.00;3.00;;;;;17.93;52.53;101049.75;5020213;28;45355;-60
2022/06/26 06:45:38;;;;;;;;;3.00;3.00;;;;;17.98;52.64;101061.09;5019950;28;45346;-60
2022/06/26 06:48:04;;;;;;;;;3.00;3.00;;;;;18.02;52.70;101062.69;5019911;28;45344;-60
2022/06/26 06:50:30;;;;;;;;;5.00;5.00;;;;;18.03;52.56;101061.78;5018315;28;45378;-60
2022/06/26 06:52:56;;;;;;;;;2.50;2.50;;;;;18.05;52.49;101059.94;5020127;28;45356;-59
2022/06/26 06:55:21;;;;;;;;;4.00;3.00;;;;;18.09;52.54;101064.19;5019827;28;46890;-59
2022/06/26 06:57:47;;;;;;;;;5.75;3.75;;;;;18.12;52.51;101066.69;5035314;28;45283;-59
2022/06/26 07:00:12;;;;;;;;;4.00;4.00;;;;;18.14;52.50;101062.19;5020140;28;45219;-60
2022/06/26 07:02:38;;;;;;;;;5.00;4.50;;;;;18.16;52.43;101064.78;5019555;28;45308;-60
2022/06/26 07:05:06;;;;;;;;;4.75;4.00;;;;;18.19;52.39;101070.84;5019267;28;46409;-60
2022/06/26 07:07:31;;;;;;;;;5.00;5.00;;;;;18.22;52.20;101075.19;5018033;28;45266;-59
2022/06/26 07:09:56;;;;;;;;;5.75;5.75;;;;;18.27;52.44;101080.31;5018088;28;45404;-59
2022/06/26 07:12:22;;;;;;;;;6.50;6.00;;;;;18.29;52.29;101075.81;5014883;28;45359;-59
2022/06/26 07:14:47;;;;;;;;;8.50;4.00;;;;;18.34;52.15;101087.13;5019719;28;45324;-59
2022/06/26 07:17:14;;;;;;;;;3.00;3.00;;;;;18.39;52.50;101090.47;5034849;28;45480;-59
2022/06/26 07:19:39;;;;;;;;;5.50;5.00;;;;;18.43;51.94;101094.72;5019991;28;45412;-59
2022/06/26 07:22:05;;;;;;;;;6.25;4.50;;;;;18.48;52.24;101103.38;5019594;28;45415;-59
2022/06/26 07:24:31;;;;;;;;;9.00;4.50;;;;;18.52;51.80;101090.81;5017528;28;46147;-60
2022/06/26 07:26:56;;;;;;;;;3.00;3.00;;;;;18.57;52.16;101086.16;5019744;28;45403;-60
2022/06/26 07:29:21;;;;;;;;;3.50;3.50;;;;;18.63;51.70;101095.69;5035107;28;45311;-60
2022/06/26 07:31:47;;;;;;;;;3.75;3.75;;;;;18.68;52.12;101099.88;5019077;28;47752;-60
2022/06/26 07:34:12;;;;;;;;;6.00;4.75;;;;;18.75;51.64;101100.47;5019640;28;45308;-60
2022/06/26 07:36:38;;;;;;;;;6.50;3.75;;;;;18.80;51.86;101101.16;5034994;28;45245;-60
2022/06/26 07:39:03;;;;;;;;;4.75;4.50;;;;;18.85;51.82;101098.28;5019549;28;45372;-60
2022/06/26 07:41:29;;;;;;;;;3.25;3.25;;;;;18.91;51.69;101097.19;5019539;28;45216;-60
2022/06/26 07:43:54;;;;;;;;;3.00;3.00;;;;;18.97;51.75;101096.94;5019318;28;45835;-60
2022/06/26 07:46:19;;;;;;;;;2.75;2.00;;;;;19.02;51.62;101108.25;5019167;28;45685;-60
2022/06/26 07:48:45;;;;;;;;;4.00;2.00;;;;;19.07;51.72;101106.25;5019511;28;45156;-60
2022/06/26 07:51:10;;;;;;;;;2.25;2.00;;;;;19.07;51.11;101106.25;5019368;28;45616;-60
2022/06/26 07:53:37;;;;;;;;;2.00;2.00;;;;;19.13;51.22;101115.75;5019334;28;45294;-60
2022/06/26 07:56:03;;;;;;;;;3.50;2.00;;;;;19.15;50.41;101117.41;5034841;28;46054;-60
2022/06/26 07:58:29;;;;;;;;;3.25;3.25;;;;;19.19;50.69;101119.94;5034658;28;45378;-60
2022/06/26 08:00:54;;;;;;;;;4.50;3.50;;;;;19.22;51.09;101123.34;5019130;28;45540;-60
2022/06/26 08:03:20;;;;;;;;;4.25;3.00;;;;;19.26;50.76;101111.59;5020006;28;46259;-60
2022/06/26 08:05:46;;;;;;;;;4.00;3.00;;;;;19.32;50.43;101105.16;5022676;28;45252;-60
2022/06/26 08:08:12;;;;;;;;;3.25;3.00;;;;;19.39;50.91;101105.72;5022803;28;45375;-60
2022/06/26 08:10:38;;;;;;;;;3.75;3.75;;;;;19.45;50.75;101100.97;5022524;28;45284;-60
2022/06/26 08:13:06;;;;;;;;;3.50;3.00;;;;;19.53;50.63;101105.09;5017488;28;45356;-60
2022/06/26 08:15:32;;;;;;;;;4.00;3.25;;;;;19.58;50.60;101098.59;5022642;28;45328;-60
2022/06/26 08:17:57;;;;;;;;;3.00;3.00;;;;;19.66;50.61;101103.59;5022058;28;45342;-60
2022/06/26 08:20:23;;;;;;;;;2.75;2.75;;;;;19.73;50.00;101106.84;5021348;28;45368;-60
2022/06/26 08:22:49;;;;;;;;;4.00;4.00;;;;;19.79;50.47;101109.22;5037442;28;47528;-60
2022/06/26 08:25:14;;;;;;;;;3.00;3.00;;;;;19.83;50.58;101102.81;5022294;28;45350;-60
2022/06/26 08:27:40;;;;;;;;;5.50;3.25;;;;;19.91;50.37;101102.47;5022401;28;45296;-61
2022/06/26 08:30:06;;;;;;;;;6.50;3.75;;;;;19.99;50.00;101100.31;5022381;28;45320;-60
2022/06/26 08:32:32;;;;;;;;;3.25;2.00;;;;;20.02;50.24;101100.13;5021610;28;46120;-60
2022/06/26 08:34:57;;;;;;;;;4.00;4.00;;;;;20.09;50.04;101101.59;5022324;28;45182;-61
2022/06/26 08:37:23;;;;;;;;;4.50;4.00;;;;;20.13;49.61;101100.50;5022325;28;45221;-60
2022/06/26 08:39:48;;;;;;;;;3.50;3.50;;;;;20.22;49.31;101101.00;5022119;28;45260;-61
2022/06/26 08:42:13;;;;;;;;;4.00;4.00;;;;;20.26;49.13;101087.44;5021951;28;46308;-60
2022/06/26 08:44:44;;;;;;;;;6.00;5.25;;;;;20.32;48.99;101102.25;5021909;28;45323;-60
2022/06/26 08:47:11;;;;;;;;;10.00;6.50;;;;;20.32;49.11;101096.06;5021926;28;45451;-60
2022/06/26 08:49:37;;;;;;;;;7.25;5.00;;;;;20.35;48.57;101088.78;5022004;28;45516;-61
2022/06/26 08:52:03;;;;;;;;;5.75;3.50;;;;;20.38;48.63;101088.63;5021508;28;45424;-61
2022/06/26 08:54:30;;;;;;;;;4.00;4.00;;;;;20.39;48.53;101089.47;5022035;28;45300;-60
2022/06/26 08:56:57;;;;;;;;;5.50;4.00;;;;;20.43;48.52;101088.41;5021843;28;45227;-61
2022/06/26 08:59:22;;;;;;;;;4.50;3.25;;;;;20.47;48.62;101084.63;5021995;28;45388;-61
2022/06/26 09:01:48;;;;;;;;;3.75;3.75;;;;;20.50;48.68;101084.44;5020915;28;45418;-61
2022/06/26 09:04:14;;;;;;;;;5.25;3.00;;;;;20.55;47.97;101085.13;5021638;28;46508;-60
2022/06/26 09:06:41;;;;;;;;;4.00;3.00;;;;;20.58;48.51;101079.59;5021788;28;45335;-60
2022/06/26 09:09:27;;;;;;;;;3.75;2.75;;;;;20.63;48.46;101079.38;5036915;28;45287;-60
2022/06/26 09:11:55;;;;;;;;;3.00;3.00;;;;;20.70;48.39;101080.75;5015715;28;45401;-60
2022/06/26 09:14:22;;;;;;;;;3.00;3.00;;;;;20.76;48.32;101077.81;5021367;28;45345;-60
2022/06/26 09:16:49;;;;;;;;;4.25;4.00;;;;;20.84;47.83;101074.78;5021364;28;45327;-60
2022/06/26 09:19:28;;;;;;;;;2.25;2.25;;;;;20.88;47.71;101070.09;5021464;28;45511;-60
2022/06/26 09:22:08;;;;;;;;;4.25;2.75;;;;;20.92;47.94;101063.69;5021155;28;46352;-60
2022/06/26 09:24:36;;;;;;;;;4.75;2.25;;;;;20.99;47.42;101069.56;5021480;28;45289;-60
2022/06/26 09:27:10;;;;;;;;;3.00;3.00;;;;;21.03;47.66;101066.66;5021534;28;45477;-60
2022/06/26 09:29:35;;;;;;;;;3.75;2.75;;;;;21.09;47.42;101066.31;5021170;28;45363;-60
2022/06/26 09:32:12;;;;;;;;;3.50;3.00;;;;;21.18;47.48;101075.66;5020960;28;46392;-60
2022/06/26 09:34:42;;;;;;;;;2.50;2.50;;;;;21.23;47.46;101065.59;5020703;28;45249;-60
2022/06/26 09:37:10;;;;;;;;;3.00;2.75;;;;;21.27;47.27;101066.28;5021339;28;45319;-60
2022/06/26 09:39:35;;;;;;;;;2.00;1.00;;;;;21.29;47.35;101067.03;5036408;28;45495;-60
2022/06/26 09:42:17;;;;;;;;;4.50;3.25;;;;;21.34;46.78;101069.47;5020583;28;45503;-60
2022/06/26 09:44:48;;;;;;;;;4.25;3.25;;;;;21.31;46.50;101065.16;5021231;28;45330;-60
2022/06/26 09:47:36;;;;;;;;;3.00;3.00;;;;;21.41;46.63;101066.38;5020752;28;45265;-60
2022/06/26 09:50:06;;;;;;;;;3.00;2.25;;;;;21.47;46.37;101064.31;5020910;28;45459;-60
2022/06/26 09:52:32;;;;;;;;;4.00;3.50;;;;;21.49;46.93;101067.78;5020671;28;45259;-60
2022/06/26 09:55:00;;;;;;;;;3.00;3.00;;;;;21.53;46.57;101075.53;5020866;28;45181;-59
2022/06/26 09:57:27;;;;;;;;;3.00;3.00;;;;;21.59;46.27;101069.88;5021007;28;45235;-59
2022/06/26 09:59:54;;;;;;;;;3.25;3.25;;;;;21.67;46.22;101071.25;5020774;28;45461;-59
2022/06/26 10:07:52;;;;;;;;;4.75;3.50;;;;;21.92;45.93;101074.31;5020883;28;45315;-59
2022/06/26 10:10:20;;;;;;;;;5.00;4.00;;;;;21.98;45.85;101074.91;5020631;28;45425;-59
2022/06/26 10:12:49;;;;;;;;;15.25;14.00;;;;;22.00;45.91;101072.97;5016571;28;45490;-59
2022/06/26 10:15:18;;;;;;;;;6.50;6.00;;;;;22.00;45.71;101079.22;5020389;28;45371;-59
2022/06/26 10:18:09;;;;;;;;;5.75;4.00;;;;;22.01;45.59;101070.25;5020385;28;45356;-59
2022/06/26 10:20:37;;;;;;;;;6.75;4.00;;;;;22.06;45.72;101072.63;5019325;28;45321;-59
2022/06/26 10:23:02;;;;;;;;;4.50;3.50;;;;;22.07;45.11;101071.69;5020337;28;45338;-59
2022/06/26 10:25:30;;;;;;;;;6.00;6.00;;;;;22.13;45.34;101067.81;5019669;28;45232;-59
2022/06/26 10:27:57;;;;;;;;;5.50;4.00;;;;;22.20;45.42;101069.16;5020534;28;45240;-59
2022/06/26 10:30:25;;;;;;;;;4.50;3.00;;;;;22.26;45.49;101071.47;5020284;28;45612;-59
2022/06/26 10:33:21;;;;;;;;;3.00;3.00;;;;;22.34;45.25;101061.19;5019640;28;46346;-59
2022/06/26 10:35:49;;;;;;;;;4.00;4.00;;;;;22.40;45.12;101076.06;5020188;28;45299;-59
2022/06/26 10:38:32;;;;;;;;;5.00;3.25;;;;;22.46;45.24;101075.69;5020287;28;45391;-59
2022/06/26 10:44:02;;;;;;;;;4.00;3.00;;;;;22.68;44.66;101075.28;5019931;28;45241;-59
2022/06/26 10:46:35;;;;;;;;;9.00;6.25;;;;;22.78;44.71;101067.56;5019679;28;45363;-58
2022/06/26 10:49:00;;;;;;;;;4.50;4.00;;;;;23.00;44.77;101066.25;5020306;28;45443;-59
2022/06/26 10:51:29;;;;;;;;;5.00;3.75;;;;;23.22;45.11;101057.78;5020164;28;45363;-58
2022/06/26 10:53:55;;;;;;;;;2.25;2.25;;;;;23.45;45.28;101061.69;5019792;28;45268;-58
2022/06/26 10:56:20;;;;;;;;;4.75;4.75;;;;;23.76;45.19;101064.22;5020187;28;45391;-58
2022/06/26 10:58:46;;;;;;;;;3.25;3.00;;;;;24.10;45.23;101062.03;5035484;28;45423;-59
2022/06/26 11:01:13;;;;;;;;;6.25;3.00;;;;;24.55;45.23;101067.94;5019835;28;45598;-58
2022/06/26 11:03:40;;;;;;;;;3.75;3.75;;;;;25.03;45.13;101070.09;5019675;28;46832;-58
2022/06/26 11:06:06;;;;;;;;;7.00;3.50;;;;;25.46;44.83;101069.75;5019716;28;45372;-58
2022/06/26 11:08:46;;;;;;;;;5.50;2.75;;;;;25.92;44.59;101070.03;5020109;28;45433;-58
2022/06/26 11:11:20;;;;;;;;;5.00;3.00;;;;;26.39;44.72;101059.38;5017091;28;45306;-59
2022/06/26 11:13:50;;;;;;;;;4.75;2.75;;;;;26.86;44.56;101054.03;5019093;28;45534;-59
2022/06/26 11:16:16;;;;;;;;;4.75;4.00;;;;;27.35;44.42;101047.44;5034436;28;45435;-57
2022/06/26 11:18:42;;;;;;;;;3.00;3.00;;;;;27.88;44.81;101046.75;5018682;28;45239;-57
2022/06/26 11:21:07;;;;;;;;;38.75;33.00;;;;;28.44;44.78;101038.56;5019423;28;45229;-57
2022/06/26 11:23:36;;;;;;;;;2.75;2.25;;;;;28.97;44.78;101038.50;5019745;28;46255;-57
2022/06/26 11:26:05;;;;;;;;;4.25;3.00;;;;;29.57;44.21;101037.78;5019478;28;45275;-57
2022/06/26 11:28:39;;;;;;;;;73.75;63.00;;;;;30.23;43.69;101043.56;5035141;28;45345;-59
2022/06/26 11:31:06;;;;;;;;;3.00;2.00;;;;;30.88;43.85;101041.06;5018708;28;45281;-58
2022/06/26 11:33:34;;;;;;;;;3.00;2.00;;;;;31.53;44.37;101047.50;5019585;28;45422;-58
2022/06/26 11:36:02;;;;;;;;;3.00;3.00;;;;;32.07;43.79;101064.72;5019409;28;45316;-58